createdAt,value
2023-01-17T00:00:48.884Z,0.81
2023-01-17T00:01:50.516Z,0.80
2023-01-17T00:02:52.324Z,0.79
2023-01-17T00:04:12.634Z,0.77
2023-01-17T00:05:33.019Z,0.84
2023-01-17T00:06:53.323Z,0.79
2023-01-17T00:08:13.302Z,0.71
2023-01-17T00:09:33.780Z,0.74
2023-01-17T00:10:40.447Z,0.70
2023-01-17T00:11:42.243Z,0.71
2023-01-17T00:12:49.339Z,0.71
2023-01-17T00:13:51.096Z,0.77
2023-01-17T00:14:54.669Z,0.74
2023-01-17T00:15:56.316Z,0.74
2023-01-17T00:16:58.081Z,0.74
2023-01-17T00:17:59.854Z,0.71
2023-01-17T00:19:20.140Z,0.73
2023-01-17T00:20:43.075Z,0.77
2023-01-17T00:22:03.462Z,0.69
2023-01-17T00:23:32.998Z,0.65
2023-01-17T00:24:53.260Z,0.58
2023-01-17T00:26:04.792Z,0.60
2023-01-17T00:27:12.430Z,0.52
2023-01-17T00:28:14.236Z,0.57
2023-01-17T00:29:15.818Z,0.51
2023-01-17T00:30:17.457Z,0.50
2023-01-17T00:31:19.082Z,0.50
2023-01-17T00:32:20.674Z,0.52
2023-01-17T00:33:22.887Z,0.45
2023-01-17T00:34:24.473Z,0.45
2023-01-17T00:35:27.436Z,0.36
2023-01-17T00:36:28.975Z,0.39
2023-01-17T00:37:30.596Z,0.44
2023-01-17T00:38:33.806Z,0.46
2023-01-17T00:39:35.358Z,0.48
2023-01-17T00:40:38.710Z,0.49
2023-01-17T00:41:40.270Z,0.52
2023-01-17T00:42:41.794Z,0.50
2023-01-17T00:44:02.166Z,0.50
2023-01-17T00:45:23.357Z,0.46
2023-01-17T00:46:43.712Z,0.42
2023-01-17T00:48:04.981Z,0.38
2023-01-17T00:49:25.335Z,0.35
2023-01-17T00:50:45.481Z,0.31
2023-01-17T00:52:05.670Z,0.33
2023-01-17T00:53:25.868Z,0.29
2023-01-17T00:54:46.096Z,0.33
2023-01-17T00:56:06.427Z,0.31
2023-01-17T00:57:27.217Z,0.27
2023-01-17T00:58:47.661Z,0.28
2023-01-17T01:00:07.968Z,0.21
2023-01-17T01:01:28.420Z,0.19
2023-01-17T01:02:49.019Z,0.05
2023-01-17T01:04:09.287Z,0.10
2023-01-17T01:05:30.069Z,0.13
2023-01-17T01:06:50.256Z,0.16
2023-01-17T01:08:10.589Z,0.16
2023-01-17T01:09:30.768Z,0.16
2023-01-17T01:10:52.128Z,0.13
2023-01-17T01:12:12.500Z,0.20
2023-01-17T01:13:32.854Z,0.15
2023-01-17T01:14:53.022Z,0.13
2023-01-17T01:16:12.966Z,0.14
2023-01-17T01:17:33.055Z,0.15
2023-01-17T01:18:53.221Z,0.29
2023-01-17T01:20:13.576Z,0.32
2023-01-17T01:21:33.650Z,0.45
2023-01-17T01:22:53.715Z,0.49
2023-01-17T01:24:14.022Z,0.54
2023-01-17T01:25:35.717Z,0.58
2023-01-17T01:26:55.936Z,0.64
2023-01-17T01:28:28.990Z,0.59
2023-01-17T01:29:48.990Z,0.60
2023-01-17T01:31:09.264Z,0.60
2023-01-17T01:32:29.657Z,0.58
2023-01-17T01:33:31.282Z,0.53
2023-01-17T01:34:33.030Z,0.53
2023-01-17T01:35:36.601Z,0.63
2023-01-17T01:36:38.307Z,0.63
2023-01-17T01:37:39.975Z,0.70
2023-01-17T01:38:41.583Z,0.66
2023-01-17T01:39:43.239Z,0.65
2023-01-17T01:40:50.432Z,0.64
2023-01-17T01:41:52.156Z,0.62
2023-01-17T01:42:55.970Z,0.57
2023-01-17T01:43:57.608Z,0.58
2023-01-17T01:44:59.510Z,0.64
2023-01-17T01:46:01.319Z,0.66
2023-01-17T01:47:03.018Z,0.65
2023-01-17T01:48:22.383Z,0.59
2023-01-17T01:49:25.845Z,0.55
2023-01-17T01:50:28.856Z,0.49
2023-01-17T01:51:36.744Z,0.46
2023-01-17T01:52:43.136Z,0.46
2023-01-17T01:53:48.054Z,0.40
2023-01-17T01:54:54.045Z,0.37
2023-01-17T01:55:55.820Z,0.43
2023-01-17T01:56:59.070Z,0.48
2023-01-17T01:58:04.889Z,0.41
2023-01-17T01:59:08.844Z,0.34
2023-01-17T02:00:17.526Z,0.36
2023-01-17T02:01:19.553Z,0.25
2023-01-17T02:02:21.386Z,0.25
2023-01-17T02:03:27.316Z,0.18
2023-01-17T02:04:28.971Z,0.14
2023-01-17T02:05:31.064Z,0.10
2023-01-17T02:06:35.680Z,0.13
2023-01-17T02:07:42.545Z,0.17
2023-01-17T02:08:44.175Z,0.10
2023-01-17T02:09:45.789Z,0.19
2023-01-17T02:10:47.661Z,0.24
2023-01-17T02:11:49.783Z,0.18
2023-01-17T02:12:52.913Z,0.16
2023-01-17T02:13:54.686Z,0.21
2023-01-17T02:14:56.618Z,0.14
2023-01-17T02:16:16.132Z,0.14
2023-01-17T02:17:23.657Z,0.08
2023-01-17T02:18:34.186Z,0.11
2023-01-17T02:20:11.278Z,0.10
2023-01-17T02:21:24.793Z,0.17
2023-01-17T02:22:41.453Z,0.15
2023-01-17T02:23:54.896Z,0.14
2023-01-17T02:25:21.541Z,0.06
2023-01-17T02:26:35.319Z,0.07
2023-01-17T02:27:49.026Z,0.08
2023-01-17T02:29:22.842Z,0.02
2023-01-17T02:30:39.887Z,0.00
2023-01-17T02:31:55.407Z,0.07
2023-01-17T02:33:11.745Z,0.04
2023-01-17T02:34:19.331Z,-0.01
2023-01-17T02:35:34.155Z,0.00
2023-01-17T02:36:41.962Z,-0.02
2023-01-17T02:38:23.021Z,0.01
2023-01-17T02:39:32.924Z,-0.08
2023-01-17T02:40:48.452Z,-0.05
2023-01-17T02:41:54.178Z,-0.09
2023-01-17T02:43:05.469Z,-0.03
2023-01-17T02:44:11.071Z,-0.02
2023-01-17T02:45:19.437Z,0.06
2023-01-17T02:46:21.018Z,0.00
2023-01-17T02:47:31.731Z,0.02
2023-01-17T02:48:35.835Z,-0.08
2023-01-17T02:49:37.523Z,-0.05
2023-01-17T02:50:58.809Z,0.00
2023-01-17T02:52:18.391Z,0.00
2023-01-17T02:53:42.306Z,0.02
2023-01-17T02:55:12.910Z,0.05
2023-01-17T02:56:38.895Z,0.10
2023-01-17T02:58:01.973Z,0.06
2023-01-17T02:59:15.752Z,0.11
2023-01-17T03:00:50.267Z,0.12
2023-01-17T03:02:04.441Z,0.15
2023-01-17T03:03:27.312Z,0.16
2023-01-17T03:04:42.298Z,0.19
2023-01-17T03:05:47.328Z,0.30
2023-01-17T03:06:53.732Z,0.31
2023-01-17T03:07:56.239Z,0.30
2023-01-17T03:08:57.939Z,0.38
2023-01-17T03:10:02.239Z,0.45
2023-01-17T03:11:03.866Z,0.44
2023-01-17T03:12:05.954Z,0.49
2023-01-17T03:13:07.587Z,0.44
2023-01-17T03:14:09.241Z,0.38
2023-01-17T03:15:12.966Z,0.52
2023-01-17T03:16:21.154Z,0.42
2023-01-17T03:17:24.258Z,0.42
2023-01-17T03:18:25.999Z,0.43
2023-01-17T03:19:27.641Z,0.41
2023-01-17T03:20:29.284Z,0.36
2023-01-17T03:21:30.984Z,0.25
2023-01-17T03:22:32.583Z,0.27
2023-01-17T03:23:34.179Z,0.11
2023-01-17T03:24:35.739Z,0.14
2023-01-17T03:25:37.339Z,0.10
2023-01-17T03:26:39.101Z,0.06
2023-01-17T03:27:40.696Z,0.13
2023-01-17T03:28:42.403Z,0.03
2023-01-17T03:29:44.002Z,0.03
2023-01-17T03:30:45.674Z,0.01
2023-01-17T03:31:47.260Z,-0.06
2023-01-17T03:32:49.434Z,-0.16
2023-01-17T03:33:51.123Z,-0.24
2023-01-17T03:34:52.782Z,-0.20
2023-01-17T03:35:57.953Z,-0.25
2023-01-17T03:36:59.586Z,-0.16
2023-01-17T03:38:01.142Z,-0.25
2023-01-17T03:39:02.987Z,-0.21
2023-01-17T03:40:05.063Z,-0.25
2023-01-17T03:41:07.151Z,-0.24
2023-01-17T03:42:08.746Z,-0.34
2023-01-17T03:43:10.363Z,-0.24
2023-01-17T03:44:11.991Z,-0.20
2023-01-17T03:45:13.654Z,-0.24
2023-01-17T03:46:21.126Z,-0.22
2023-01-17T03:47:22.784Z,-0.25
2023-01-17T03:48:24.436Z,-0.17
2023-01-17T03:49:26.525Z,-0.19
2023-01-17T03:50:28.184Z,-0.22
2023-01-17T03:51:29.769Z,-0.16
2023-01-17T03:52:31.402Z,-0.23
2023-01-17T03:53:32.980Z,-0.23
2023-01-17T03:54:34.668Z,-0.19
2023-01-17T03:55:36.254Z,-0.19
2023-01-17T03:56:37.875Z,-0.16
2023-01-17T03:57:39.467Z,-0.18
2023-01-17T03:58:41.266Z,-0.17
2023-01-17T03:59:42.887Z,-0.17
2023-01-17T04:00:44.469Z,-0.08
2023-01-17T04:01:46.202Z,-0.20
2023-01-17T04:02:47.928Z,-0.20
2023-01-17T04:03:49.528Z,-0.17
2023-01-17T04:04:51.344Z,-0.15
2023-01-17T04:05:52.935Z,-0.11
2023-01-17T04:06:54.670Z,-0.14
2023-01-17T04:07:56.284Z,-0.16
2023-01-17T04:08:57.882Z,-0.19
2023-01-17T04:09:59.508Z,-0.18
2023-01-17T04:11:01.112Z,-0.15
2023-01-17T04:12:03.120Z,-0.10
2023-01-17T04:13:04.804Z,-0.06
2023-01-17T04:14:06.414Z,-0.04
2023-01-17T04:15:08.236Z,-0.03
2023-01-17T04:16:14.450Z,0.00
2023-01-17T04:17:17.522Z,0.02
2023-01-17T04:18:20.582Z,0.03
2023-01-17T04:19:22.344Z,0.03
2023-01-17T04:20:32.503Z,0.04
2023-01-17T04:21:34.051Z,0.04
2023-01-17T04:22:35.657Z,-0.08
2023-01-17T04:23:37.364Z,-0.01
2023-01-17T04:24:39.007Z,-0.04
2023-01-17T04:25:40.741Z,-0.03
2023-01-17T04:26:42.363Z,-0.10
2023-01-17T04:27:44.013Z,-0.18
2023-01-17T04:28:45.609Z,-0.20
2023-01-17T04:29:47.215Z,-0.24
2023-01-17T04:30:48.902Z,-0.19
2023-01-17T04:31:50.508Z,-0.30
2023-01-17T04:32:52.364Z,-0.28
2023-01-17T04:33:53.997Z,-0.25
2023-01-17T04:34:55.558Z,-0.32
2023-01-17T04:35:57.220Z,-0.32
2023-01-17T04:36:58.908Z,-0.32
2023-01-17T04:38:00.838Z,-0.30
2023-01-17T04:39:02.540Z,-0.35
2023-01-17T04:40:05.353Z,-0.33
2023-01-17T04:41:06.971Z,-0.30
2023-01-17T04:42:08.543Z,-0.30
2023-01-17T04:43:10.195Z,-0.30
2023-01-17T04:44:11.811Z,-0.29
2023-01-17T04:45:14.031Z,-0.33
2023-01-17T04:46:15.696Z,-0.27
2023-01-17T04:47:17.364Z,-0.30
2023-01-17T04:48:18.962Z,-0.39
2023-01-17T04:49:20.536Z,-0.48
2023-01-17T04:50:22.171Z,-0.50
2023-01-17T04:51:23.819Z,-0.48
2023-01-17T04:52:25.561Z,-0.43
2023-01-17T04:53:27.281Z,-0.48
2023-01-17T04:54:28.924Z,-0.53
2023-01-17T04:55:31.177Z,-0.55
2023-01-17T04:56:32.761Z,-0.54
2023-01-17T04:57:34.418Z,-0.54
2023-01-17T04:58:35.994Z,-0.56
2023-01-17T04:59:37.565Z,-0.59
2023-01-17T05:00:39.048Z,-0.62
2023-01-17T05:01:40.703Z,-0.61
2023-01-17T05:02:42.322Z,-0.54
2023-01-17T05:03:46.929Z,-0.54
2023-01-17T05:04:48.531Z,-0.52
2023-01-17T05:05:50.104Z,-0.43
2023-01-17T05:06:51.747Z,-0.39
2023-01-17T05:07:57.740Z,-0.46
2023-01-17T05:08:59.536Z,-0.45
2023-01-17T05:10:01.167Z,-0.48
2023-01-17T05:11:02.791Z,-0.51
2023-01-17T05:12:04.618Z,-0.54
2023-01-17T05:13:06.335Z,-0.52
2023-01-17T05:14:09.165Z,-0.56
2023-01-17T05:15:10.910Z,-0.39
2023-01-17T05:16:12.670Z,-0.43
2023-01-17T05:17:14.343Z,-0.46
2023-01-17T05:18:17.245Z,-0.43
2023-01-17T05:19:20.926Z,-0.52
2023-01-17T05:20:24.040Z,-0.44
2023-01-17T05:21:25.719Z,-0.51
2023-01-17T05:22:27.302Z,-0.52
2023-01-17T05:23:28.878Z,-0.55
2023-01-17T05:24:31.319Z,-0.61
2023-01-17T05:25:33.238Z,-0.49
2023-01-17T05:26:34.914Z,-0.53
2023-01-17T05:27:37.229Z,-0.53
2023-01-17T05:28:38.840Z,-0.56
2023-01-17T05:29:40.949Z,-0.68
2023-01-17T05:30:42.660Z,-0.67
2023-01-17T05:31:44.995Z,-0.64
2023-01-17T05:32:51.425Z,-0.62
2023-01-17T05:33:53.076Z,-0.66
2023-01-17T05:34:54.857Z,-0.74
2023-01-17T05:35:56.866Z,-0.71
2023-01-17T05:36:58.715Z,-0.72
2023-01-17T05:38:00.683Z,-0.69
2023-01-17T05:39:02.350Z,-0.73
2023-01-17T05:40:06.152Z,-0.74
2023-01-17T05:41:07.716Z,-0.88
2023-01-17T05:42:09.324Z,-0.83
2023-01-17T05:43:10.900Z,-0.87
2023-01-17T05:44:12.537Z,-0.95
2023-01-17T05:45:16.956Z,-1.03
2023-01-17T05:46:18.625Z,-1.15
2023-01-17T05:47:20.256Z,-1.09
2023-01-17T05:48:21.830Z,-1.08
2023-01-17T05:49:23.435Z,-1.18
2023-01-17T05:50:30.003Z,-1.23
2023-01-17T05:51:31.631Z,-1.26
2023-01-17T05:52:33.258Z,-1.19
2023-01-17T05:53:34.897Z,-1.24
2023-01-17T05:54:36.467Z,-1.26
2023-01-17T05:55:38.901Z,-1.27
2023-01-17T05:56:40.549Z,-1.29
2023-01-17T05:57:42.151Z,-1.20
2023-01-17T05:58:43.761Z,-1.24
2023-01-17T05:59:45.316Z,-1.18
2023-01-17T06:00:47.585Z,-1.23
2023-01-17T06:01:49.285Z,-1.17
2023-01-17T06:02:53.637Z,-1.11
2023-01-17T06:03:55.307Z,-1.06
2023-01-17T06:04:56.956Z,-1.03
2023-01-17T06:05:58.524Z,-1.09
2023-01-17T06:07:00.152Z,-1.13
2023-01-17T06:08:01.698Z,-1.10
2023-01-17T06:09:03.331Z,-1.11
2023-01-17T06:10:05.659Z,-1.14
2023-01-17T06:11:07.347Z,-1.11
2023-01-17T06:12:08.988Z,-1.19
2023-01-17T06:13:15.252Z,-1.25
2023-01-17T06:14:16.909Z,-1.24
2023-01-17T06:15:18.689Z,-1.31
2023-01-17T06:16:20.384Z,-1.15
2023-01-17T06:17:22.021Z,-1.20
2023-01-17T06:18:23.579Z,-1.17
2023-01-17T06:19:25.203Z,-1.23
2023-01-17T06:20:27.345Z,-1.29
2023-01-17T06:21:29.730Z,-1.40
2023-01-17T06:22:31.370Z,-1.48
2023-01-17T06:23:32.970Z,-1.46
2023-01-17T06:24:34.649Z,-1.39
2023-01-17T06:25:43.832Z,-1.41
2023-01-17T06:26:45.411Z,-1.39
2023-01-17T06:27:47.056Z,-1.42
2023-01-17T06:28:48.720Z,-1.41
2023-01-17T06:29:50.349Z,-1.43
2023-01-17T06:30:51.980Z,-1.48
2023-01-17T06:31:53.586Z,-1.40
2023-01-17T06:32:55.638Z,-1.49
2023-01-17T06:33:57.231Z,-1.49
2023-01-17T06:34:58.789Z,-1.56
2023-01-17T06:36:00.403Z,-1.68
2023-01-17T06:37:01.994Z,-1.77
2023-01-17T06:38:03.955Z,-1.65
2023-01-17T06:39:05.617Z,-1.71
2023-01-17T06:40:08.027Z,-1.68
2023-01-17T06:41:09.732Z,-1.71
2023-01-17T06:42:11.307Z,-1.73
2023-01-17T06:43:13.124Z,-1.80
2023-01-17T06:44:14.743Z,-1.77
2023-01-17T06:45:17.743Z,-1.69
2023-01-17T06:46:19.546Z,-1.70
2023-01-17T06:47:21.167Z,-1.73
2023-01-17T06:48:22.823Z,-1.72
2023-01-17T06:49:24.388Z,-1.73
2023-01-17T06:50:26.109Z,-1.62
2023-01-17T06:51:27.929Z,-1.55
2023-01-17T06:52:29.484Z,-1.52
2023-01-17T06:53:31.113Z,-1.59
2023-01-17T06:54:32.725Z,-1.63
2023-01-17T06:55:35.215Z,-1.61
2023-01-17T06:56:36.954Z,-1.75
2023-01-17T06:57:38.557Z,-1.66
2023-01-17T06:58:40.292Z,-1.63
2023-01-17T06:59:41.872Z,-1.66
2023-01-17T07:00:44.618Z,-1.68
2023-01-17T07:01:46.318Z,-1.76
2023-01-17T07:02:51.443Z,-1.88
2023-01-17T07:03:53.178Z,-1.89
2023-01-17T07:04:54.797Z,-1.93
2023-01-17T07:05:56.397Z,-1.79
2023-01-17T07:06:58.003Z,-1.86
2023-01-17T07:07:59.680Z,-1.76
2023-01-17T07:09:01.282Z,-1.73
2023-01-17T07:10:03.571Z,-1.63
2023-01-17T07:11:07.872Z,-1.71
2023-01-17T07:12:09.696Z,-1.71
2023-01-17T07:13:12.182Z,-1.78
2023-01-17T07:14:14.536Z,-1.81
2023-01-17T07:15:17.406Z,-1.83
2023-01-17T07:16:19.046Z,-1.92
2023-01-17T07:17:20.624Z,-1.85
2023-01-17T07:18:25.122Z,-1.88
2023-01-17T07:19:26.708Z,-1.93
2023-01-17T07:20:28.346Z,-1.97
2023-01-17T07:21:29.923Z,-1.89
2023-01-17T07:22:31.505Z,-1.80
2023-01-17T07:23:33.089Z,-1.71
2023-01-17T07:24:36.379Z,-1.88
2023-01-17T07:25:38.010Z,-1.88
2023-01-17T07:26:40.238Z,-1.93
2023-01-17T07:27:41.793Z,-1.95
2023-01-17T07:28:43.660Z,-1.91
2023-01-17T07:29:45.251Z,-1.93
2023-01-17T07:30:46.979Z,-1.79
2023-01-17T07:31:48.792Z,-1.78
2023-01-17T07:32:52.277Z,-1.87
2023-01-17T07:33:53.925Z,-1.88
2023-01-17T07:34:57.621Z,-1.85
2023-01-17T07:36:03.038Z,-1.77
2023-01-17T07:37:04.618Z,-1.79
2023-01-17T07:38:11.363Z,-1.82
2023-01-17T07:39:13.003Z,-1.82
2023-01-17T07:40:15.542Z,-1.86
2023-01-17T07:41:17.165Z,-1.86
2023-01-17T07:42:18.778Z,-1.67
2023-01-17T07:43:20.377Z,-1.66
2023-01-17T07:44:22.726Z,-1.49
2023-01-17T07:45:24.360Z,-1.39
2023-01-17T07:46:26.021Z,-1.09
2023-01-17T07:47:27.741Z,-0.72
2023-01-17T07:48:30.818Z,-0.31
2023-01-17T07:49:32.422Z,0.22
2023-01-17T07:50:34.164Z,0.54
2023-01-17T07:51:35.804Z,0.95
2023-01-17T07:52:37.419Z,1.26
2023-01-17T07:53:39.030Z,1.45
2023-01-17T07:54:41.217Z,1.73
2023-01-17T07:55:42.817Z,1.94
2023-01-17T07:56:47.095Z,2.16
2023-01-17T07:57:50.557Z,2.35
2023-01-17T07:58:52.149Z,2.34
2023-01-17T07:59:53.816Z,2.66
2023-01-17T08:01:04.598Z,2.94
2023-01-17T08:02:06.379Z,3.18
2023-01-17T08:03:12.084Z,3.41
2023-01-17T08:04:14.224Z,3.44
2023-01-17T08:05:16.639Z,3.14
2023-01-17T08:06:24.112Z,3.17
2023-01-17T08:07:25.683Z,2.84
2023-01-17T08:08:28.127Z,2.62
2023-01-17T08:09:29.740Z,2.44
2023-01-17T08:10:31.354Z,2.41
2023-01-17T08:11:32.896Z,2.12
2023-01-17T08:12:36.003Z,1.97
2023-01-17T08:13:37.639Z,1.82
2023-01-17T08:14:39.242Z,1.73
2023-01-17T08:15:41.101Z,1.72
2023-01-17T08:16:42.837Z,1.59
2023-01-17T08:17:54.128Z,1.46
2023-01-17T08:18:56.197Z,1.36
2023-01-17T08:19:57.744Z,1.13
2023-01-17T08:20:59.383Z,0.93
2023-01-17T08:22:00.981Z,0.72
2023-01-17T08:23:02.587Z,0.60
2023-01-17T08:24:04.475Z,0.48
2023-01-17T08:25:06.332Z,0.42
2023-01-17T08:26:07.923Z,0.31
2023-01-17T08:27:10.026Z,0.46
2023-01-17T08:28:12.233Z,0.30
2023-01-17T08:29:14.018Z,0.26
2023-01-17T08:30:15.886Z,0.26
2023-01-17T08:31:17.792Z,0.31
2023-01-17T08:32:21.328Z,0.33
2023-01-17T08:33:22.955Z,0.32
2023-01-17T08:34:24.567Z,0.35
2023-01-17T08:35:27.785Z,0.37
2023-01-17T08:36:31.284Z,0.54
2023-01-17T08:37:33.194Z,0.47
2023-01-17T08:38:34.815Z,0.52
2023-01-17T08:39:36.474Z,0.61
2023-01-17T08:40:38.224Z,0.60
2023-01-17T08:41:40.011Z,0.69
2023-01-17T08:42:41.701Z,0.81
2023-01-17T08:43:43.251Z,0.84
2023-01-17T08:44:44.776Z,0.87
2023-01-17T08:45:48.210Z,1.08
2023-01-17T08:46:49.998Z,1.04
2023-01-17T08:47:52.017Z,1.10
2023-01-17T08:48:58.972Z,1.18
2023-01-17T08:50:01.048Z,1.27
2023-01-17T08:51:03.147Z,1.41
2023-01-17T08:52:05.442Z,1.60
2023-01-17T08:53:07.062Z,1.85
2023-01-17T08:54:12.824Z,1.82
2023-01-17T08:55:14.815Z,1.79
2023-01-17T08:56:16.462Z,2.03
2023-01-17T08:57:18.105Z,2.01
2023-01-17T08:58:19.761Z,2.18
2023-01-17T08:59:21.727Z,2.25
2023-01-17T09:00:23.298Z,2.20
2023-01-17T09:01:25.061Z,2.32
2023-01-17T09:02:26.970Z,2.28
2023-01-17T09:03:28.879Z,2.39
2023-01-17T09:04:30.550Z,2.54
2023-01-17T09:05:32.207Z,2.70
2023-01-17T09:06:37.008Z,2.84
2023-01-17T09:07:38.640Z,3.22
2023-01-17T09:08:40.712Z,3.25
2023-01-17T09:09:42.375Z,3.79
2023-01-17T09:10:43.984Z,4.46
2023-01-17T09:11:45.724Z,4.47
2023-01-17T09:12:47.353Z,4.62
2023-01-17T09:13:49.007Z,4.29
2023-01-17T09:14:50.648Z,4.29
2023-01-17T09:15:56.575Z,4.13
2023-01-17T09:16:58.362Z,4.25
2023-01-17T09:18:01.338Z,4.33
2023-01-17T09:19:02.967Z,4.39
2023-01-17T09:20:04.867Z,4.66
2023-01-17T09:21:14.949Z,4.69
2023-01-17T09:22:16.524Z,4.79
2023-01-17T09:23:18.123Z,4.91
2023-01-17T09:24:20.079Z,4.88
2023-01-17T09:25:22.298Z,4.83
2023-01-17T09:26:29.381Z,4.52
2023-01-17T09:27:31.004Z,4.49
2023-01-17T09:28:40.915Z,4.64
2023-01-17T09:29:42.633Z,4.82
2023-01-17T09:30:44.302Z,4.38
2023-01-17T09:31:48.118Z,4.37
2023-01-17T09:32:54.038Z,4.70
2023-01-17T09:33:56.986Z,5.13
2023-01-17T09:35:01.041Z,5.36
2023-01-17T09:36:04.462Z,5.44
2023-01-17T09:37:07.585Z,5.48
2023-01-17T09:38:09.473Z,5.50
2023-01-17T09:39:11.593Z,5.72
2023-01-17T09:40:21.100Z,5.76
2023-01-17T09:41:37.553Z,5.55
2023-01-17T09:42:40.338Z,5.76
2023-01-17T09:43:47.118Z,5.90
2023-01-17T09:44:53.490Z,6.11
2023-01-17T09:45:55.183Z,5.72
2023-01-17T09:47:02.008Z,5.62
2023-01-17T09:48:07.913Z,5.30
2023-01-17T09:49:19.383Z,5.30
2023-01-17T09:50:45.964Z,5.32
2023-01-17T09:51:47.684Z,5.28
2023-01-17T09:52:49.400Z,4.73
2023-01-17T09:53:52.782Z,4.66
2023-01-17T09:54:54.407Z,4.54
2023-01-17T09:56:04.829Z,4.82
2023-01-17T09:57:12.234Z,4.80
2023-01-17T09:58:24.061Z,4.61
2023-01-17T09:59:45.615Z,4.70
2023-01-17T10:01:09.105Z,4.60
2023-01-17T10:02:26.713Z,4.51
2023-01-17T10:03:43.693Z,4.79
2023-01-17T10:05:04.099Z,4.97
2023-01-17T10:06:11.704Z,5.09
2023-01-17T10:07:43.966Z,5.39
2023-01-17T10:09:18.148Z,5.48
2023-01-17T10:10:34.823Z,5.46
2023-01-17T10:11:52.104Z,5.73
2023-01-17T10:12:58.431Z,5.57
2023-01-17T10:14:11.311Z,5.36
2023-01-17T10:15:15.661Z,5.17
2023-01-17T10:16:36.790Z,5.22
2023-01-17T10:18:04.958Z,5.31
2023-01-17T10:19:56.034Z,5.48
2023-01-17T10:21:33.739Z,6.12
2023-01-17T10:22:38.151Z,5.89
2023-01-17T10:23:54.867Z,5.48
2023-01-17T10:25:28.898Z,5.04
2023-01-17T10:26:31.686Z,5.03
2023-01-17T10:27:57.544Z,4.86
2023-01-17T10:29:04.925Z,4.76
2023-01-17T10:30:34.512Z,4.94
2023-01-17T10:31:41.669Z,4.71
2023-01-17T10:32:48.346Z,4.76
2023-01-17T10:33:55.570Z,4.91
2023-01-17T10:35:02.193Z,5.16
2023-01-17T10:36:10.147Z,5.39
2023-01-17T10:37:47.002Z,4.39
2023-01-17T10:39:13.943Z,4.35
2023-01-17T10:40:50.161Z,4.46
2023-01-17T10:41:55.981Z,4.43
2023-01-17T10:43:15.560Z,4.17
2023-01-17T10:44:23.445Z,4.06
2023-01-17T10:45:28.749Z,4.06
2023-01-17T10:46:41.610Z,3.95
2023-01-17T10:47:48.268Z,4.08
2023-01-17T10:48:51.850Z,4.10
2023-01-17T10:49:57.575Z,4.09
2023-01-17T10:51:35.610Z,4.09
2023-01-17T10:52:48.155Z,4.06
2023-01-17T10:54:11.481Z,4.37
2023-01-17T10:55:32.015Z,4.47
2023-01-17T10:56:34.624Z,4.30
2023-01-17T10:57:47.502Z,4.36
2023-01-17T10:58:50.317Z,4.14
2023-01-17T10:59:52.397Z,4.04
2023-01-17T11:01:19.887Z,4.01
2023-01-17T11:02:25.675Z,3.94
2023-01-17T11:03:28.578Z,3.87
2023-01-17T11:04:41.535Z,3.93
2023-01-17T11:05:43.753Z,3.85
2023-01-17T11:06:57.914Z,4.00
2023-01-17T11:08:04.588Z,4.16
2023-01-17T11:09:10.705Z,4.16
2023-01-17T11:10:37.959Z,4.24
2023-01-17T11:11:48.932Z,4.37
2023-01-17T11:12:50.553Z,4.42
2023-01-17T11:13:53.629Z,4.28
2023-01-17T11:15:01.137Z,4.23
2023-01-17T11:16:10.951Z,4.01
2023-01-17T11:17:13.582Z,4.13
2023-01-17T11:18:16.050Z,4.06
2023-01-17T11:19:26.654Z,4.04
2023-01-17T11:20:34.532Z,3.91
2023-01-17T11:21:38.122Z,3.78
2023-01-17T11:22:39.765Z,3.47
2023-01-17T11:23:43.934Z,3.43
2023-01-17T11:24:49.109Z,3.54
2023-01-17T11:25:58.002Z,3.58
2023-01-17T11:26:59.752Z,3.36
2023-01-17T11:28:20.571Z,3.23
2023-01-17T11:29:37.272Z,3.17
2023-01-17T11:30:51.080Z,3.03
2023-01-17T11:31:53.631Z,3.01
2023-01-17T11:33:06.223Z,3.19
2023-01-17T11:34:19.271Z,3.19
2023-01-17T11:35:25.428Z,3.43
2023-01-17T11:36:30.166Z,3.66
2023-01-17T11:37:31.889Z,3.54
2023-01-17T11:38:33.500Z,3.41
2023-01-17T11:39:35.193Z,3.46
2023-01-17T11:40:40.038Z,3.63
2023-01-17T11:41:41.955Z,3.60
2023-01-17T11:42:43.592Z,3.63
2023-01-17T11:43:53.893Z,3.67
2023-01-17T11:44:55.723Z,3.67
2023-01-17T11:46:15.237Z,3.75
2023-01-17T11:47:19.246Z,3.91
2023-01-17T11:48:23.831Z,3.88
2023-01-17T11:49:26.160Z,3.81
2023-01-17T11:50:28.024Z,3.64
2023-01-17T11:51:33.956Z,3.50
2023-01-17T11:52:39.112Z,3.30
2023-01-17T11:53:47.052Z,3.27
2023-01-17T11:54:49.495Z,3.08
2023-01-17T11:55:57.445Z,3.06
2023-01-17T11:57:01.988Z,3.04
2023-01-17T11:58:03.632Z,3.08
2023-01-17T11:59:21.998Z,3.09
2023-01-17T12:00:45.999Z,2.99
2023-01-17T12:02:25.158Z,3.18
2023-01-17T12:03:45.512Z,3.16
2023-01-17T12:05:08.820Z,3.12
2023-01-17T12:06:17.947Z,3.28
2023-01-17T12:07:28.460Z,3.15
2023-01-17T12:08:56.085Z,3.19
2023-01-17T12:10:08.296Z,3.12
2023-01-17T12:11:22.105Z,3.14
2023-01-17T12:13:07.366Z,3.26
2023-01-17T12:14:26.631Z,3.25
2023-01-17T12:15:34.584Z,3.15
2023-01-17T12:16:54.396Z,3.21
2023-01-17T12:18:06.913Z,3.10
2023-01-17T12:19:26.968Z,3.01
2023-01-17T12:20:44.515Z,2.96
2023-01-17T12:22:07.580Z,3.06
2023-01-17T12:23:42.958Z,3.03
2023-01-17T12:24:50.426Z,2.92
2023-01-17T12:26:00.942Z,2.97
2023-01-17T12:27:16.079Z,3.09
2023-01-17T12:28:44.658Z,3.17
2023-01-17T12:30:06.459Z,3.06
2023-01-17T12:31:14.546Z,3.17
2023-01-17T12:32:35.750Z,3.04
2023-01-17T12:33:49.428Z,2.92
2023-01-17T12:34:57.396Z,2.89
2023-01-17T12:36:02.378Z,2.93
2023-01-17T12:37:26.770Z,3.03
2023-01-17T12:38:40.661Z,2.90
2023-01-17T12:39:47.858Z,2.88
2023-01-17T12:41:00.242Z,2.86
2023-01-17T12:42:24.144Z,2.94
2023-01-17T12:43:32.844Z,2.84
2023-01-17T12:44:46.351Z,2.75
2023-01-17T12:45:48.432Z,2.71
2023-01-17T12:47:03.753Z,2.68
2023-01-17T12:48:11.280Z,2.67
2023-01-17T12:49:34.303Z,2.68
2023-01-17T12:50:41.913Z,2.64
2023-01-17T12:51:45.017Z,2.69
2023-01-17T12:53:05.666Z,2.72
2023-01-17T12:54:27.191Z,2.66
2023-01-17T12:56:07.309Z,2.68
2023-01-17T12:57:15.979Z,2.60
2023-01-17T12:58:21.618Z,2.66
2023-01-17T12:59:37.540Z,2.66
2023-01-17T13:00:39.578Z,2.68
2023-01-17T13:01:44.695Z,2.68
2023-01-17T13:03:08.391Z,2.77
2023-01-17T13:04:25.708Z,2.64
2023-01-17T13:05:32.565Z,2.63
2023-01-17T13:06:52.134Z,2.55
2023-01-17T13:08:05.036Z,2.54
2023-01-17T13:09:09.564Z,2.52
2023-01-17T13:10:27.007Z,2.51
2023-01-17T13:11:44.077Z,2.48
2023-01-17T13:12:46.792Z,2.55
2023-01-17T13:13:51.349Z,2.50
2023-01-17T13:14:53.258Z,2.67
2023-01-17T13:16:10.611Z,2.54
2023-01-17T13:17:33.098Z,2.56
2023-01-17T13:18:35.403Z,2.51
2023-01-17T13:19:36.876Z,2.52
2023-01-17T13:20:47.549Z,2.58
2023-01-17T13:21:50.231Z,2.46
2023-01-17T13:22:52.512Z,2.53
2023-01-17T13:24:01.861Z,2.68
2023-01-17T13:25:03.446Z,2.64
2023-01-17T13:26:14.368Z,2.69
2023-01-17T13:27:39.081Z,2.74
2023-01-17T13:29:06.515Z,2.78
2023-01-17T13:30:32.525Z,2.92
2023-01-17T13:31:48.269Z,2.75
2023-01-17T13:33:30.970Z,2.72
2023-01-17T13:34:40.897Z,2.67
2023-01-17T13:35:48.338Z,2.64
2023-01-17T13:37:04.656Z,2.69
2023-01-17T13:38:16.648Z,2.57
2023-01-17T13:39:24.072Z,2.61
2023-01-17T13:40:36.882Z,2.60
2023-01-17T13:41:53.901Z,2.45
2023-01-17T13:43:05.587Z,2.51
2023-01-17T13:44:21.432Z,2.49
2023-01-17T13:45:36.209Z,2.43
2023-01-17T13:47:00.837Z,2.53
2023-01-17T13:48:18.232Z,2.52
2023-01-17T13:49:34.113Z,2.41
2023-01-17T13:50:38.420Z,2.37
2023-01-17T13:52:03.705Z,2.43
2023-01-17T13:53:36.912Z,2.27
2023-01-17T13:54:54.977Z,2.32
2023-01-17T13:56:12.555Z,2.34
2023-01-17T13:57:23.187Z,2.22
2023-01-17T13:58:51.668Z,2.25
2023-01-17T13:59:54.609Z,2.18
2023-01-17T14:00:56.317Z,2.15
2023-01-17T14:01:58.126Z,2.13
2023-01-17T14:02:59.824Z,2.05
2023-01-17T14:04:02.941Z,1.97
2023-01-17T14:05:23.956Z,2.04
2023-01-17T14:06:45.192Z,1.99
2023-01-17T14:07:48.539Z,1.94
2023-01-17T14:08:50.159Z,1.87
2023-01-17T14:09:51.763Z,1.89
2023-01-17T14:10:54.754Z,1.88
2023-01-17T14:12:27.142Z,1.80
2023-01-17T14:13:35.356Z,1.77
2023-01-17T14:14:39.603Z,1.78
2023-01-17T14:15:49.760Z,1.73
2023-01-17T14:16:51.437Z,1.68
2023-01-17T14:17:58.637Z,1.71
2023-01-17T14:19:00.455Z,1.72
2023-01-17T14:20:04.879Z,1.67
2023-01-17T14:21:32.000Z,1.59
2023-01-17T14:22:36.413Z,1.57
2023-01-17T14:23:58.394Z,1.61
2023-01-17T14:25:20.112Z,1.56
2023-01-17T14:26:43.157Z,1.53
2023-01-17T14:27:54.909Z,1.56
2023-01-17T14:28:58.058Z,1.54
2023-01-17T14:30:00.806Z,1.52
2023-01-17T14:31:09.241Z,1.52
2023-01-17T14:32:31.947Z,1.53
2023-01-17T14:33:39.855Z,1.44
2023-01-17T14:34:44.124Z,1.46
2023-01-17T14:35:54.887Z,1.48
2023-01-17T14:37:05.490Z,1.42
2023-01-17T14:38:33.537Z,1.49
2023-01-17T14:39:44.837Z,1.47
2023-01-17T14:40:55.948Z,1.42
2023-01-17T14:41:58.338Z,1.43
2023-01-17T14:43:03.728Z,1.40
2023-01-17T14:44:05.533Z,1.41
2023-01-17T14:45:09.102Z,1.37
2023-01-17T14:46:19.708Z,1.42
2023-01-17T14:47:22.426Z,1.38
2023-01-17T14:48:24.337Z,1.38
2023-01-17T14:49:26.834Z,1.36